Time;durP1;ratioP1;P1;durP2;ratioP2;P2;SDS_P1;SDS_P2;PMS_P1;PMS_P2;Temp;Humidity;BMP_temperature;BMP_pressure;BME280_temperature;BME280_humidity;BME280_pressure;Samples;Min_cycle;Max_cycle;Signal;HPM_P1;HPM_P2
2024/04/14 00:00:33;;;;;;;9.50;3.42;;;22.10;49.50;;;;;;6816922;26;20398;-70
2024/04/14 00:03:34;;;;;;;8.18;3.10;;;22.10;49.50;;;;;;6781875;26;20036;-69
2024/04/14 00:06:38;;;;;;;6.38;2.45;;;22.10;49.60;;;;;;6824217;26;20021;-70
2024/04/14 00:09:38;;;;;;;11.05;2.95;;;22.00;49.60;;;;;;6818160;26;20306;-70
2024/04/14 00:12:40;;;;;;;14.07;3.25;;;22.00;49.50;;;;;;6822334;26;20751;-72
2024/04/14 00:15:41;;;;;;;14.02;3.25;;;22.00;49.40;;;;;;6831687;26;19993;-70
2024/04/14 00:18:43;;;;;;;13.68;2.90;;;22.00;49.20;;;;;;6788390;26;20437;-70
2024/04/14 00:21:45;;;;;;;5.18;2.60;;;21.90;48.80;;;;;;6830650;25;19997;-70
2024/04/14 00:24:47;;;;;;;5.25;2.33;;;21.90;48.60;;;;;;6815224;26;20009;-69
2024/04/14 00:27:47;;;;;;;22.60;2.83;;;21.80;48.60;;;;;;6832239;26;20006;-68
2024/04/14 00:30:48;;;;;;;6.97;2.60;;;21.80;48.50;;;;;;6835345;26;20518;-70
2024/04/14 00:33:51;;;;;;;5.07;2.47;;;21.80;48.50;;;;;;6835005;26;20013;-70
2024/04/14 00:36:52;;;;;;;6.10;3.10;;;21.80;48.70;;;;;;6825144;25;19998;-70
2024/04/14 00:39:55;;;;;;;7.80;2.85;;;21.70;48.70;;;;;;6822643;26;20388;-70
2024/04/14 00:42:56;;;;;;;9.82;3.55;;;21.70;48.90;;;;;;6825478;26;20154;-71
2024/04/14 00:45:58;;;;;;;8.18;2.80;;;21.60;49.00;;;;;;6829986;25;19997;-69
2024/04/14 00:48:59;;;;;;;12.30;3.63;;;21.60;49.50;;;;;;6835065;26;19998;-70
2024/04/14 00:52:03;;;;;;;7.80;3.05;;;21.60;49.90;;;;;;6797368;26;20000;-71
2024/04/14 00:55:04;;;;;;;16.35;3.40;;;21.50;50.30;;;;;;6838880;26;20007;-70
2024/04/14 00:58:07;;;;;;;6.03;2.85;;;21.50;50.80;;;;;;6751528;26;20681;-70
2024/04/14 01:01:09;;;;;;;8.02;3.28;;;21.40;51.10;;;;;;6803878;26;20029;-70
2024/04/14 01:04:10;;;;;;;8.65;3.47;;;21.30;51.40;;;;;;6767753;26;20005;-69
2024/04/14 01:07:11;;;;;;;6.70;3.00;;;21.30;51.70;;;;;;6754248;26;20603;-69
2024/04/14 01:10:12;;;;;;;7.18;3.08;;;21.30;51.80;;;;;;6804849;26;19997;-71
2024/04/14 01:13:13;;;;;;;11.38;3.20;;;21.30;52.00;;;;;;6836830;25;20024;-70
2024/04/14 01:16:13;;;;;;;6.18;2.83;;;21.20;51.90;;;;;;6835494;26;20096;-69
2024/04/14 01:19:16;;;;;;;3.88;2.13;;;21.20;51.80;;;;;;6806257;26;20477;-69
2024/04/14 01:22:18;;;;;;;9.98;3.17;;;21.20;51.80;;;;;;6805539;26;20401;-69
2024/04/14 01:25:22;;;;;;;4.25;2.85;;;21.20;51.80;;;;;;6806373;26;20002;-68
2024/04/14 01:28:24;;;;;;;11.45;2.92;;;21.20;51.80;;;;;;6806157;26;19997;-69
2024/04/14 01:31:24;;;;;;;5.13;3.03;;;21.10;51.70;;;;;;6837061;25;20457;-69
2024/04/14 01:34:25;;;;;;;10.88;2.80;;;21.10;51.50;;;;;;6806103;26;20001;-69
2024/04/14 01:37:26;;;;;;;7.55;3.05;;;21.10;51.40;;;;;;6763674;26;19993;-70
2024/04/14 01:40:27;;;;;;;7.22;3.28;;;21.00;51.30;;;;;;6806150;25;20012;-70
2024/04/14 01:43:29;;;;;;;7.47;2.83;;;20.90;51.40;;;;;;6830190;26;20476;-70
2024/04/14 01:46:29;;;;;;;9.52;3.17;;;20.90;51.90;;;;;;6801679;26;20108;-69
2024/04/14 01:49:30;;;;;;;16.13;3.08;;;20.80;52.40;;;;;;6812632;26;20005;-71
2024/04/14 01:52:31;;;;;;;9.77;2.78;;;20.80;52.70;;;;;;6771414;26;20111;-70
2024/04/14 01:55:32;;;;;;;10.13;2.60;;;20.80;52.90;;;;;;6795551;26;20004;-69
2024/04/14 01:58:35;;;;;;;7.78;3.13;;;20.70;52.90;;;;;;6758917;26;20480;-70
2024/04/14 02:01:36;;;;;;;6.65;2.92;;;20.70;53.00;;;;;;6819172;26;20049;-69
2024/04/14 02:04:37;;;;;;;6.40;2.92;;;20.70;53.00;;;;;;6780061;26;20082;-70
2024/04/14 02:07:40;;;;;;;6.93;2.83;;;20.70;53.00;;;;;;6830295;26;20050;-70
2024/04/14 02:10:42;;;;;;;11.68;3.50;;;20.60;53.00;;;;;;6828438;25;20005;-71
2024/04/14 02:13:44;;;;;;;8.85;3.35;;;20.60;53.10;;;;;;6806871;26;19998;-71
2024/04/14 02:16:45;;;;;;;8.60;3.03;;;20.60;53.20;;;;;;6829240;26;20003;-69
2024/04/14 02:19:46;;;;;;;9.68;3.13;;;20.60;53.30;;;;;;6830328;26;20006;-70
2024/04/14 02:22:47;;;;;;;4.75;2.45;;;20.60;53.30;;;;;;6823483;26;20340;-68
2024/04/14 02:25:59;;;;;;;5.22;2.42;;;20.50;53.10;;;;;;6827563;26;19998;-69
2024/04/14 02:29:00;;;;;;;9.80;2.40;;;20.50;52.90;;;;;;6804144;26;19998;-69
2024/04/14 02:32:01;;;;;;;10.10;2.47;;;20.60;52.70;;;;;;6828492;26;20012;-70
2024/04/14 02:35:02;;;;;;;12.02;2.70;;;20.50;52.60;;;;;;6811276;26;20195;-69
2024/04/14 02:38:03;;;;;;;4.80;2.40;;;20.40;52.40;;;;;;6818024;25;20002;-69
2024/04/14 02:41:05;;;;;;;10.38;3.13;;;20.40;52.60;;;;;;6823145;26;20065;-70
2024/04/14 02:44:05;;;;;;;9.27;2.85;;;20.40;52.80;;;;;;6829663;26;20013;-69
2024/04/14 02:47:06;;;;;;;8.55;2.83;;;20.40;52.80;;;;;;6830653;26;19997;-69
2024/04/14 02:50:08;;;;;;;10.52;3.30;;;20.30;52.90;;;;;;6831923;26;19994;-69
2024/04/14 02:53:10;;;;;;;12.63;3.00;;;20.20;53.60;;;;;;6826863;26;20002;-70
2024/04/14 02:56:11;;;;;;;6.93;2.63;;;20.20;53.10;;;;;;6815913;26;20490;-69
2024/04/14 02:59:11;;;;;;;8.45;3.30;;;20.20;53.40;;;;;;6821954;25;20001;-69
2024/04/14 03:02:13;;;;;;;5.72;3.28;;;20.20;53.70;;;;;;6832893;25;20345;-70
2024/04/14 03:05:15;;;;;;;6.40;2.80;;;20.20;53.80;;;;;;6825443;25;20018;-69
2024/04/14 03:08:15;;;;;;;6.00;2.92;;;20.10;54.00;;;;;;6820211;26;20076;-69
2024/04/14 03:11:16;;;;;;;6.00;2.92;;;20.00;54.20;;;;;;6825252;25;20508;-70
2024/04/14 03:14:17;;;;;;;5.75;2.70;;;20.00;54.30;;;;;;6833452;26;19990;-70
2024/04/14 03:17:20;;;;;;;7.80;3.83;;;20.00;54.30;;;;;;6804243;26;20001;-72
2024/04/14 03:20:22;;;;;;;4.97;2.67;;;19.90;54.40;;;;;;6836519;26;20116;-71
2024/04/14 03:23:25;;;;;;;10.45;2.75;;;19.90;54.50;;;;;;6827532;26;20115;-70
2024/04/14 03:26:26;;;;;;;6.30;2.70;;;19.90;54.70;;;;;;6831295;26;19993;-69
2024/04/14 03:29:27;;;;;;;8.48;2.83;;;19.90;54.70;;;;;;6824592;26;20069;-70
2024/04/14 03:32:28;;;;;;;7.25;3.13;;;19.90;54.90;;;;;;6834650;26;20351;-70
2024/04/14 03:35:28;;;;;;;5.85;3.13;;;19.90;55.00;;;;;;6802601;26;20061;-71
2024/04/14 03:38:30;;;;;;;6.85;2.97;;;19.80;55.10;;;;;;6801149;26;20065;-69
2024/04/14 03:41:31;;;;;;;4.40;2.55;;;19.80;55.20;;;;;;6824155;26;20063;-70
2024/04/14 03:44:32;;;;;;;14.15;3.15;;;19.80;55.10;;;;;;6823520;26;20068;-69
2024/04/14 03:47:34;;;;;;;6.97;2.78;;;19.80;54.90;;;;;;6830109;25;20077;-70
2024/04/14 03:50:36;;;;;;;6.90;2.83;;;19.80;55.20;;;;;;6773172;26;19989;-70
2024/04/14 03:53:46;;;;;;;5.50;2.85;;;19.70;55.40;;;;;;6817264;26;20118;-70
2024/04/14 03:56:48;;;;;;;13.32;2.63;;;19.60;55.40;;;;;;6803099;26;19998;-70
2024/04/14 03:59:49;;;;;;;10.23;2.97;;;19.60;55.60;;;;;;6803158;26;19997;-70
2024/04/14 04:02:53;;;;;;;10.77;3.20;;;19.50;55.80;;;;;;6756819;26;20950;-69
2024/04/14 04:05:55;;;;;;;11.15;3.92;;;19.50;56.00;;;;;;6743991;26;19998;-70
2024/04/14 04:08:56;;;;;;;7.10;3.50;;;19.40;56.10;;;;;;6757022;26;20166;-69
2024/04/14 04:11:56;;;;;;;10.25;3.40;;;19.40;56.20;;;;;;6785321;25;20017;-69
2024/04/14 04:14:59;;;;;;;11.32;3.17;;;19.30;56.40;;;;;;6803645;26;20080;-71
2024/04/14 04:17:59;;;;;;;9.98;3.30;;;19.20;56.70;;;;;;6801512;26;20001;-69
2024/04/14 04:21:05;;;;;;;8.88;3.55;;;19.20;57.00;;;;;;6828056;26;20166;-69
2024/04/14 04:24:06;;;;;;;8.00;2.92;;;19.10;57.20;;;;;;6801371;26;20301;-70
2024/04/14 04:27:07;;;;;;;11.30;3.28;;;19.00;57.40;;;;;;6791976;26;20460;-70
2024/04/14 04:30:09;;;;;;;11.27;3.35;;;19.00;57.70;;;;;;6820436;25;20004;-69
2024/04/14 04:33:10;;;;;;;6.80;3.60;;;18.90;57.90;;;;;;6827616;26;20026;-68
2024/04/14 04:36:13;;;;;;;6.35;3.20;;;18.90;58.00;;;;;;6784537;26;20140;-69
2024/04/14 04:39:14;;;;;;;12.15;3.28;;;18.90;58.20;;;;;;6787990;26;20006;-71
2024/04/14 04:42:15;;;;;;;9.70;3.38;;;18.90;58.20;;;;;;6760099;26;20100;-69
2024/04/14 04:45:15;;;;;;;9.70;3.92;;;18.90;58.20;;;;;;6771963;26;20105;-69
2024/04/14 04:48:17;;;;;;;12.88;2.85;;;18.90;58.20;;;;;;6799756;26;19993;-69
2024/04/14 04:51:18;;;;;;;9.15;3.22;;;18.90;58.10;;;;;;6825413;26;20004;-70
2024/04/14 04:54:19;;;;;;;6.32;3.08;;;18.90;57.90;;;;;;6792315;26;20304;-70
2024/04/14 04:57:23;;;;;;;6.25;2.75;;;18.90;57.70;;;;;;6809881;26;20012;-69
2024/04/14 05:00:24;;;;;;;7.10;3.33;;;19.00;57.50;;;;;;6831274;25;20039;-69
2024/04/14 05:03:25;;;;;;;11.27;3.13;;;19.00;57.40;;;;;;6791913;26;21160;-68
2024/04/14 05:06:26;;;;;;;12.63;2.88;;;19.00;57.30;;;;;;6834681;25;20009;-69
2024/04/14 05:09:27;;;;;;;7.43;3.20;;;19.00;57.10;;;;;;6827215;26;20382;-70
2024/04/14 05:12:28;;;;;;;7.13;2.97;;;19.00;56.90;;;;;;6795621;26;19993;-69
2024/04/14 05:15:29;;;;;;;9.63;3.13;;;19.00;56.80;;;;;;6826012;26;19993;-70
2024/04/14 05:18:29;;;;;;;8.55;3.55;;;19.00;56.90;;;;;;6830616;26;20394;-70
2024/04/14 05:21:30;;;;;;;17.92;4.20;;;19.00;57.00;;;;;;6830014;26;19994;-70
2024/04/14 05:24:31;;;;;;;7.05;3.42;;;19.00;57.20;;;;;;6830944;26;20008;-70
2024/04/14 05:27:32;;;;;;;12.10;3.35;;;19.00;57.30;;;;;;6781939;25;20009;-68
2024/04/14 05:30:36;;;;;;;8.60;3.05;;;19.00;57.30;;;;;;6812993;26;20053;-70
2024/04/14 05:33:37;;;;;;;7.32;2.58;;;19.00;57.20;;;;;;6826147;26;19989;-68
2024/04/14 05:36:37;;;;;;;7.82;2.75;;;19.00;56.90;;;;;;6823087;26;20328;-69
2024/04/14 05:39:38;;;;;;;12.80;2.67;;;19.00;56.30;;;;;;6808692;26;20107;-69
2024/04/14 05:42:39;;;;;;;10.73;2.58;;;19.00;55.90;;;;;;6828583;26;19994;-69
2024/04/14 05:45:41;;;;;;;14.13;3.28;;;19.00;55.70;;;;;;6834698;25;20011;-69
2024/04/14 05:48:42;;;;;;;5.30;2.10;;;19.00;55.40;;;;;;6819694;25;19990;-69
2024/04/14 05:51:43;;;;;;;6.00;2.63;;;19.00;55.20;;;;;;6800805;26;20066;-70
2024/04/14 05:54:44;;;;;;;4.85;2.45;;;19.00;55.00;;;;;;6822137;25;20327;-70
2024/04/14 05:57:44;;;;;;;8.52;3.42;;;19.10;55.10;;;;;;6757097;26;20458;-68
2024/04/14 06:00:46;;;;;;;5.13;2.55;;;19.10;55.10;;;;;;6810408;25;20442;-70
2024/04/14 06:03:47;;;;;;;6.88;2.70;;;19.10;55.10;;;;;;6801336;26;20022;-66
2024/04/14 06:06:51;;;;;;;11.73;3.30;;;19.10;55.20;;;;;;6795708;25;20413;-69
2024/04/14 06:09:53;;;;;;;34.50;6.03;;;19.10;55.50;;;;;;6789795;26;19994;-69
2024/04/14 06:12:54;;;;;;;16.98;4.78;;;19.20;55.80;;;;;;6798811;26;20047;-70
2024/04/14 06:15:56;;;;;;;8.55;3.47;;;19.20;56.00;;;;;;6826208;26;20001;-69
2024/04/14 06:19:00;;;;;;;22.00;3.65;;;19.20;56.00;;;;;;6804218;25;19997;-67
2024/04/14 06:22:01;;;;;;;10.88;3.60;;;19.30;56.00;;;;;;6804785;26;20029;-69
2024/04/14 06:25:02;;;;;;;7.40;3.10;;;19.30;55.90;;;;;;6803164;26;19989;-69
2024/04/14 06:28:03;;;;;;;19.02;3.72;;;19.40;55.90;;;;;;6775609;25;19994;-69
2024/04/14 06:31:04;;;;;;;11.32;3.65;;;19.40;55.90;;;;;;6800664;25;20405;-68
2024/04/14 06:34:05;;;;;;;6.32;3.58;;;19.40;55.90;;;;;;6820463;25;20009;-69
2024/04/14 06:37:06;;;;;;;7.07;3.40;;;19.40;55.90;;;;;;6808618;25;20001;-70
2024/04/14 06:40:08;;;;;;;8.35;3.05;;;19.50;55.80;;;;;;6813671;25;20557;-70
2024/04/14 06:43:09;;;;;;;7.03;3.17;;;19.50;55.70;;;;;;6802480;25;19997;-72
2024/04/14 06:46:10;;;;;;;9.02;2.88;;;19.60;55.50;;;;;;6811583;25;20021;-71
2024/04/14 06:49:11;;;;;;;8.85;3.60;;;19.70;55.40;;;;;;6818485;26;20010;-71
2024/04/14 06:52:12;;;;;;;6.13;3.08;;;19.70;55.40;;;;;;6821529;25;20066;-72
2024/04/14 06:55:15;;;;;;;7.93;3.88;;;19.80;55.50;;;;;;6835402;26;19997;-69
2024/04/14 06:58:16;;;;;;;12.90;3.78;;;19.90;55.60;;;;;;6791706;25;20012;-69
2024/04/14 07:01:17;;;;;;;10.80;4.40;;;20.00;55.60;;;;;;6817363;25;20026;-68
2024/04/14 07:04:18;;;;;;;6.60;3.75;;;20.00;55.60;;;;;;6829521;25;20680;-68
2024/04/14 07:07:19;;;;;;;8.52;3.90;;;20.10;55.60;;;;;;6814069;25;20005;-69
2024/04/14 07:10:19;;;;;;;6.00;3.70;;;20.20;55.60;;;;;;6826881;25;20009;-69
2024/04/14 07:13:20;;;;;;;11.70;4.13;;;20.20;55.50;;;;;;6812420;25;20013;-70
2024/04/14 07:16:21;;;;;;;13.60;4.00;;;20.30;55.60;;;;;;6812013;25;20463;-68
2024/04/14 07:19:22;;;;;;;8.38;4.47;;;20.30;56.20;;;;;;6786107;25;20009;-68
2024/04/14 07:22:23;;;;;;;12.38;3.80;;;20.30;55.50;;;;;;6825114;25;20438;-68
2024/04/14 07:25:24;;;;;;;7.43;3.38;;;20.40;55.50;;;;;;6793153;25;19993;-69
2024/04/14 07:28:25;;;;;;;8.40;3.03;;;20.40;55.20;;;;;;6785175;26;20829;-67
2024/04/14 07:31:26;;;;;;;7.50;3.25;;;20.50;55.10;;;;;;6829215;26;20133;-70
2024/04/14 07:34:27;;;;;;;17.52;3.15;;;20.50;55.00;;;;;;6835363;26;20037;-69
2024/04/14 07:37:27;;;;;;;6.75;3.17;;;20.70;54.90;;;;;;6835091;26;20433;-68
2024/04/14 07:40:28;;;;;;;3.90;2.65;;;20.80;54.50;;;;;;6834214;25;20025;-69
2024/04/14 07:43:29;;;;;;;7.28;2.72;;;20.90;54.20;;;;;;6836312;25;20035;-69
2024/04/14 07:46:31;;;;;;;6.40;3.30;;;21.10;53.90;;;;;;6835073;25;20459;-69
2024/04/14 07:49:32;;;;;;;11.35;4.38;;;21.20;53.60;;;;;;6835432;26;19994;-69
2024/04/14 07:52:32;;;;;;;9.05;3.58;;;21.30;53.30;;;;;;6835799;25;21424;-70
2024/04/14 07:55:34;;;;;;;10.45;2.83;;;21.40;53.00;;;;;;6835774;25;20112;-70
2024/04/14 07:58:36;;;;;;;8.18;2.92;;;21.60;52.70;;;;;;6834320;26;20009;-69
2024/04/14 08:01:36;;;;;;;13.27;3.22;;;21.70;52.50;;;;;;6835275;25;19993;-69
2024/04/14 08:04:37;;;;;;;8.48;2.60;;;21.80;52.20;;;;;;6836278;26;20349;-70
2024/04/14 08:07:39;;;;;;;11.63;3.58;;;22.00;52.00;;;;;;6837309;25;20032;-69
2024/04/14 08:10:39;;;;;;;4.47;2.55;;;22.10;51.80;;;;;;6834809;26;20457;-69
2024/04/14 08:13:40;;;;;;;7.85;2.55;;;22.20;51.50;;;;;;6803715;26;19993;-69
2024/04/14 08:16:44;;;;;;;15.80;5.32;;;22.40;51.20;;;;;;6835145;26;20018;-70
2024/04/14 08:19:45;;;;;;;13.65;3.78;;;22.50;50.90;;;;;;6837358;26;20482;-68
2024/04/14 08:22:47;;;;;;;9.00;2.97;;;22.70;50.70;;;;;;6835487;25;20013;-71
2024/04/14 08:25:48;;;;;;;17.85;2.55;;;22.90;50.50;;;;;;6804195;26;20024;-69
2024/04/14 08:28:49;;;;;;;9.68;2.63;;;23.10;50.00;;;;;;6836119;26;20005;-70
2024/04/14 08:31:50;;;;;;;14.45;3.72;;;23.30;49.70;;;;;;6804967;26;20111;-69
2024/04/14 08:34:55;;;;;;;16.52;4.85;;;23.40;49.20;;;;;;6835616;25;19997;-69
2024/04/14 08:37:56;;;;;;;10.15;3.83;;;23.50;48.90;;;;;;6834970;26;20433;-70
2024/04/14 08:40:58;;;;;;;19.83;4.47;;;23.70;48.40;;;;;;6804738;26;20009;-70
2024/04/14 08:44:00;;;;;;;9.65;2.70;;;23.80;48.20;;;;;;6835606;26;20016;-70
2024/04/14 08:47:04;;;;;;;9.95;3.10;;;24.00;47.90;;;;;;6836546;26;20068;-69
2024/04/14 08:50:08;;;;;;;4.22;2.35;;;24.20;47.40;;;;;;6835550;26;19993;-71
2024/04/14 08:53:12;;;;;;;5.70;2.50;;;24.30;46.90;;;;;;6834161;26;19994;-70
2024/04/14 08:56:15;;;;;;;9.98;2.30;;;24.40;46.60;;;;;;6834886;26;20066;-70
2024/04/14 08:59:18;;;;;;;8.75;3.05;;;24.50;46.30;;;;;;6802454;26;19990;-69
2024/04/14 09:02:19;;;;;;;11.02;2.05;;;24.50;45.80;;;;;;6788227;26;20028;-70
2024/04/14 09:05:21;;;;;;;6.78;2.60;;;24.60;45.40;;;;;;6785689;26;20041;-69
2024/04/14 09:08:25;;;;;;;11.00;2.70;;;24.60;44.80;;;;;;6833270;25;20340;-69
2024/04/14 09:11:27;;;;;;;14.45;2.53;;;24.70;44.80;;;;;;6805257;26;20709;-70
2024/04/14 09:14:29;;;;;;;9.50;2.20;;;24.80;44.50;;;;;;6839208;26;19997;-70
2024/04/14 09:17:32;;;;;;;5.60;2.42;;;24.90;44.10;;;;;;6806966;26;20021;-69
2024/04/14 09:20:33;;;;;;;9.25;2.40;;;25.00;43.60;;;;;;6786463;26;20108;-69
2024/04/14 09:23:33;;;;;;;5.57;2.40;;;25.10;43.60;;;;;;6839541;26;20012;-70
2024/04/14 09:26:35;;;;;;;6.10;1.85;;;25.20;43.60;;;;;;6824352;26;20410;-70
2024/04/14 09:29:35;;;;;;;7.85;2.25;;;25.30;43.50;;;;;;6793647;26;20410;-69
2024/04/14 09:32:36;;;;;;;13.30;2.70;;;25.40;43.20;;;;;;6794594;26;20009;-69
2024/04/14 09:35:38;;;;;;;5.55;2.20;;;25.50;42.60;;;;;;6837978;26;19993;-70
2024/04/14 09:38:39;;;;;;;7.28;2.42;;;25.60;42.30;;;;;;6840964;25;20054;-70
2024/04/14 09:41:41;;;;;;;11.15;2.65;;;25.70;42.20;;;;;;6842005;25;20073;-71
2024/04/14 09:44:43;;;;;;;7.00;1.80;;;25.80;42.40;;;;;;6808829;26;20469;-72
2024/04/14 09:47:46;;;;;;;9.25;2.50;;;25.90;42.30;;;;;;6838280;25;20065;-69
2024/04/14 09:50:49;;;;;;;3.42;2.15;;;26.00;41.90;;;;;;6808717;26;20008;-70
2024/04/14 09:53:50;;;;;;;5.97;2.03;;;26.20;41.90;;;;;;6841406;25;20013;-69
2024/04/14 09:56:51;;;;;;;5.80;2.00;;;26.30;41.20;;;;;;6807998;26;20014;-71
2024/04/14 09:59:52;;;;;;;15.35;2.55;;;26.30;40.50;;;;;;6777923;26;20420;-70
2024/04/14 10:02:58;;;;;;;8.60;2.40;;;26.30;40.40;;;;;;6841443;26;20128;-70
2024/04/14 10:06:01;;;;;;;3.58;1.90;;;26.30;40.00;;;;;;6841230;26;19998;-70
2024/04/14 10:09:02;;;;;;;5.43;1.67;;;26.40;39.50;;;;;;6841265;26;20001;-69
2024/04/14 10:12:04;;;;;;;6.95;2.90;;;26.40;39.50;;;;;;6807922;26;20104;-70
2024/04/14 10:15:13;;;;;;;20.90;6.60;;;26.50;39.50;;;;;;6840473;26;20021;-70
2024/04/14 10:18:17;;;;;;;3.65;2.00;;;26.60;39.00;;;;;;6805833;26;20477;-69
2024/04/14 10:21:21;;;;;;;7.32;2.40;;;26.70;38.70;;;;;;6838302;25;20195;-69
2024/04/14 10:24:23;;;;;;;8.27;3.40;;;26.70;38.00;;;;;;6838604;25;20002;-70
2024/04/14 10:27:24;;;;;;;6.38;1.60;;;26.80;38.30;;;;;;6805676;26;20497;-71
2024/04/14 10:30:25;;;;;;;4.38;1.65;;;26.90;37.90;;;;;;6805770;26;20009;-70
2024/04/14 10:33:27;;;;;;;6.85;2.33;;;27.00;37.20;;;;;;6806899;26;20004;-70
2024/04/14 10:36:28;;;;;;;4.30;2.20;;;27.10;37.20;;;;;;6838296;26;20031;-70
2024/04/14 10:39:31;;;;;;;5.03;2.03;;;27.20;37.10;;;;;;6806512;26;20042;-69
2024/04/14 10:42:33;;;;;;;5.70;2.22;;;27.30;37.10;;;;;;6839160;26;20504;-70
2024/04/14 10:45:34;;;;;;;6.63;1.95;;;27.50;36.70;;;;;;6805161;26;19993;-69
2024/04/14 10:48:42;;;;;;;4.15;1.95;;;27.90;35.80;;;;;;6798570;26;20008;-71
2024/04/14 10:51:43;;;;;;;5.45;1.77;;;28.40;35.00;;;;;;6804217;26;19993;-69
2024/04/14 10:54:44;;;;;;;3.97;1.67;;;28.90;34.20;;;;;;6731016;26;20018;-69
2024/04/14 10:57:45;;;;;;;7.40;2.03;;;29.40;33.20;;;;;;6828594;26;19994;-69
2024/04/14 11:00:46;;;;;;;4.60;1.70;;;29.80;32.30;;;;;;6805786;26;20027;-70
2024/04/14 11:03:49;;;;;;;5.53;2.03;;;30.20;31.80;;;;;;6805626;26;20458;-69
2024/04/14 11:06:50;;;;;;;5.28;1.88;;;30.50;31.30;;;;;;6774389;26;20016;-68
2024/04/14 11:09:52;;;;;;;7.72;1.85;;;30.80;30.90;;;;;;6808552;26;20090;-70
2024/04/14 11:12:53;;;;;;;13.23;2.00;;;31.10;30.20;;;;;;6837548;25;20011;-69
2024/04/14 11:15:57;;;;;;;2.55;1.63;;;31.40;30.00;;;;;;6805626;26;20470;-68
2024/04/14 11:18:58;;;;;;;2.75;1.67;;;31.70;29.80;;;;;;6835320;26;20436;-70
2024/04/14 11:21:59;;;;;;;5.32;1.80;;;31.90;29.30;;;;;;6805836;26;20012;-69
2024/04/14 11:25:00;;;;;;;5.00;2.13;;;32.10;29.20;;;;;;6839319;26;20096;-71
2024/04/14 11:28:01;;;;;;;4.20;1.90;;;32.30;28.90;;;;;;6787353;26;20009;-69
2024/04/14 11:31:03;;;;;;;4.18;1.90;;;32.40;28.80;;;;;;6805296;26;20560;-70
2024/04/14 11:34:07;;;;;;;6.03;1.83;;;32.60;28.80;;;;;;6804305;26;20028;-71
2024/04/14 11:37:12;;;;;;;5.97;2.20;;;32.80;28.60;;;;;;6805118;26;19997;-71
2024/04/14 11:40:15;;;;;;;5.95;1.55;;;32.90;28.40;;;;;;6804722;26;20069;-70
2024/04/14 11:43:17;;;;;;;10.43;1.70;;;33.10;28.30;;;;;;6774332;26;21276;-70
2024/04/14 11:46:18;;;;;;;8.90;2.45;;;33.30;27.80;;;;;;6806155;26;20521;-70
2024/04/14 11:49:20;;;;;;;13.82;3.25;;;33.50;27.70;;;;;;6814047;26;20002;-69
2024/04/14 11:52:21;;;;;;;9.38;3.25;;;33.70;27.10;;;;;;6834471;26;20465;-70
2024/04/14 11:55:22;;;;;;;14.52;2.65;;;33.90;26.90;;;;;;6835874;26;20001;-70
2024/04/14 11:58:26;;;;;;;10.07;2.35;;;34.30;26.70;;;;;;6834640;26;20413;-69
2024/04/14 12:01:27;;;;;;;7.25;2.10;;;34.80;26.40;;;;;;6835701;26;20001;-70
2024/04/14 12:04:28;;;;;;;5.63;1.83;;;35.10;25.90;;;;;;6837430;25;20027;-70
2024/04/14 12:07:30;;;;;;;4.45;1.77;;;35.50;25.50;;;;;;6834687;25;19993;-69
2024/04/14 12:10:31;;;;;;;4.40;1.80;;;35.70;25.00;;;;;;6834524;26;20001;-70
2024/04/14 12:13:32;;;;;;;6.85;1.73;;;35.90;24.40;;;;;;6838021;25;20016;-69
2024/04/14 12:16:36;;;;;;;4.03;1.70;;;36.10;24.00;;;;;;6837599;26;20386;-69
2024/04/14 12:19:38;;;;;;;7.88;1.88;;;36.30;23.80;;;;;;6835533;26;20025;-70
2024/04/14 12:22:39;;;;;;;4.43;1.63;;;36.50;23.30;;;;;;6836230;26;20001;-71
2024/04/14 12:25:40;;;;;;;5.13;1.83;;;36.70;23.00;;;;;;6835208;26;20002;-69
2024/04/14 12:28:44;;;;;;;5.10;1.75;;;37.10;22.60;;;;;;6812827;26;20066;-69
2024/04/14 12:31:45;;;;;;;4.25;1.60;;;37.40;22.20;;;;;;6836046;26;20069;-74
2024/04/14 12:34:46;;;;;;;3.60;1.60;;;37.70;22.10;;;;;;6806081;26;19997;-70
2024/04/14 12:37:47;;;;;;;5.32;1.65;;;38.10;21.30;;;;;;6837826;26;20541;-68
2024/04/14 12:40:48;;;;;;;10.18;1.88;;;38.60;21.00;;;;;;6834505;26;20445;-70
2024/04/14 12:43:49;;;;;;;25.25;2.10;;;39.00;20.10;;;;;;6835503;26;20009;-70
2024/04/14 12:46:50;;;;;;;4.95;1.50;;;39.50;19.60;;;;;;6839166;26;19997;-70
2024/04/14 12:49:51;;;;;;;8.98;1.67;;;40.00;19.10;;;;;;6839387;26;20015;-70
2024/04/14 12:52:52;;;;;;;10.98;2.05;;;40.30;18.20;;;;;;6842433;26;20034;-70
2024/04/14 12:55:53;;;;;;;7.68;1.63;;;40.60;18.00;;;;;;6839937;26;20080;-72
2024/04/14 12:58:54;;;;;;;6.85;1.40;;;40.80;17.60;;;;;;6808150;26;20001;-70
2024/04/14 13:01:55;;;;;;;2.53;1.25;;;41.00;17.50;;;;;;6838990;26;20433;-70
2024/04/14 13:04:57;;;;;;;7.03;1.48;;;41.50;17.50;;;;;;6838499;26;20073;-70
2024/04/14 13:08:01;;;;;;;7.10;1.45;;;42.10;17.10;;;;;;6811102;26;20017;-71
2024/04/14 13:11:02;;;;;;;6.45;1.25;;;42.60;16.70;;;;;;6838344;26;20018;-69
2024/04/14 13:14:03;;;;;;;6.88;1.65;;;43.10;16.30;;;;;;6840567;26;20008;-71
2024/04/14 13:17:05;;;;;;;8.25;2.17;;;43.50;15.70;;;;;;6802207;26;20009;-70
2024/04/14 13:20:09;;;;;;;14.30;1.55;;;43.60;15.60;;;;;;6807089;26;20465;-70
2024/04/14 13:23:10;;;;;;;5.75;1.60;;;44.10;15.30;;;;;;6836875;26;20231;-71
2024/04/14 13:26:11;;;;;;;12.85;1.50;;;44.40;14.70;;;;;;6840991;26;20797;-69
2024/04/14 13:29:12;;;;;;;4.88;1.20;;;44.20;14.60;;;;;;6838248;26;20141;-69
2024/04/14 13:32:14;;;;;;;8.00;1.73;;;44.10;14.60;;;;;;6840660;25;20442;-69
2024/04/14 13:35:14;;;;;;;9.35;1.40;;;44.10;14.50;;;;;;6800854;26;19990;-69
2024/04/14 13:38:15;;;;;;;4.72;1.67;;;44.30;14.70;;;;;;6821091;26;20011;-71
2024/04/14 13:41:17;;;;;;;6.85;1.60;;;45.00;14.70;;;;;;6808606;26;19994;-70
2024/04/14 13:44:19;;;;;;;2.90;2.00;;;45.50;14.20;;;;;;6839686;26;19993;-70
2024/04/14 13:47:20;;;;;;;2.78;1.15;;;45.50;14.30;;;;;;6839559;26;20066;-71
2024/04/14 13:50:22;;;;;;;5.20;1.35;;;45.40;14.40;;;;;;6780307;26;20033;-71
2024/04/14 13:53:23;;;;;;;2.63;1.30;;;45.10;14.20;;;;;;6823959;25;19997;-69
2024/04/14 13:56:24;;;;;;;5.75;1.33;;;44.70;14.30;;;;;;6838343;26;19993;-70
2024/04/14 13:59:26;;;;;;;4.57;1.30;;;44.50;14.70;;;;;;6839078;26;20406;-71
2024/04/14 14:02:28;;;;;;;4.70;1.77;;;44.40;14.80;;;;;;6838208;26;20224;-68
2024/04/14 14:05:30;;;;;;;5.32;1.50;;;44.30;14.60;;;;;;6840304;26;20003;-70
2024/04/14 14:08:31;;;;;;;3.97;1.10;;;44.20;14.50;;;;;;6839861;25;20378;-71
2024/04/14 14:11:32;;;;;;;5.47;1.17;;;44.00;14.60;;;;;;6806204;26;20090;-70
2024/04/14 14:14:35;;;;;;;8.00;2.38;;;43.50;15.20;;;;;;6838195;25;20077;-69
2024/04/14 14:17:36;;;;;;;5.05;1.70;;;42.20;15.50;;;;;;6829819;25;20370;-69
2024/04/14 14:20:37;;;;;;;5.65;1.50;;;41.00;16.10;;;;;;6838061;25;20457;-69
2024/04/14 14:23:40;;;;;;;8.05;2.30;;;39.80;16.50;;;;;;6837868;26;19997;-70
2024/04/14 14:26:41;;;;;;;5.43;1.20;;;38.80;16.90;;;;;;6837046;26;20008;-70
2024/04/14 14:29:44;;;;;;;8.23;1.35;;;38.00;17.30;;;;;;6805498;26;19997;-70
2024/04/14 14:32:45;;;;;;;3.15;1.02;;;37.30;17.80;;;;;;6836807;26;20151;-69
2024/04/14 14:39:05;;;;;;;3.28;1.15;;;36.20;18.60;;;;;;6835349;26;20008;-69
2024/04/14 14:42:06;;;;;;;2.22;1.20;;;35.70;18.90;;;;;;6840064;25;19993;-70
2024/04/14 14:45:08;;;;;;;10.60;1.13;;;35.30;19.00;;;;;;6795346;26;20344;-70
2024/04/14 14:48:09;;;;;;;2.92;1.20;;;34.90;19.20;;;;;;6830064;26;20091;-69
2024/04/14 14:51:10;;;;;;;2.63;1.10;;;34.60;19.40;;;;;;6837716;26;19997;-69
2024/04/14 14:54:11;;;;;;;2.65;1.55;;;34.40;19.70;;;;;;6837665;26;20354;-69
2024/04/14 14:57:11;;;;;;;2.00;1.00;;;34.20;19.80;;;;;;6806937;26;20442;-68
2024/04/14 15:00:13;;;;;;;3.80;1.25;;;34.10;20.10;;;;;;6838689;25;20080;-69
2024/04/14 15:03:14;;;;;;;2.88;1.48;;;33.90;20.40;;;;;;6807244;26;19997;-70
2024/04/14 15:06:15;;;;;;;5.18;1.48;;;33.80;20.30;;;;;;6837418;26;20101;-70
2024/04/14 15:09:16;;;;;;;4.80;1.23;;;33.60;20.50;;;;;;6836587;26;20001;-70
2024/04/14 15:12:18;;;;;;;4.93;0.88;;;33.40;20.80;;;;;;6836638;26;20466;-69
2024/04/14 15:15:19;;;;;;;4.10;1.15;;;33.30;20.70;;;;;;6839509;26;20069;-69
2024/04/14 15:18:21;;;;;;;5.93;1.40;;;33.30;20.80;;;;;;6807111;26;20020;-69
2024/04/14 15:21:24;;;;;;;3.47;1.00;;;33.20;21.50;;;;;;6839031;25;20213;-70
2024/04/14 15:24:25;;;;;;;5.10;1.10;;;33.20;21.00;;;;;;6835521;26;20046;-70
2024/04/14 15:27:26;;;;;;;1.30;0.93;;;33.20;21.00;;;;;;6838895;25;19997;-70
2024/04/14 15:30:28;;;;;;;2.63;1.08;;;33.20;21.00;;;;;;6836237;26;20003;-69
2024/04/14 15:33:29;;;;;;;5.28;1.30;;;33.20;21.00;;;;;;6837698;25;20053;-69
2024/04/14 15:36:30;;;;;;;2.17;1.13;;;33.20;20.90;;;;;;6836111;25;20009;-69
2024/04/14 15:39:31;;;;;;;6.35;1.20;;;33.20;21.00;;;;;;6836637;25;19997;-69
2024/04/14 15:42:32;;;;;;;5.07;1.10;;;33.30;21.10;;;;;;6836026;26;20008;-70